createdAt,value
2023-02-27T00:00:27.762Z,1011.79
2023-02-27T00:10:27.830Z,1011.87
2023-02-27T00:20:28.058Z,1011.89
2023-02-27T00:30:28.426Z,1012.00
2023-02-27T00:40:28.371Z,1012.09
2023-02-27T00:50:28.653Z,1012.05
2023-02-27T01:00:28.958Z,1012.02
2023-02-27T01:10:29.025Z,1011.97
2023-02-27T01:20:29.298Z,1012.02
2023-02-27T01:30:29.440Z,1011.97
2023-02-27T01:40:29.464Z,1011.91
2023-02-27T01:50:29.790Z,1012.01
2023-02-27T02:00:29.825Z,1012.01
2023-02-27T02:10:30.147Z,1012.04
2023-02-27T02:20:30.183Z,1012.05
2023-02-27T02:30:30.613Z,1012.06
2023-02-27T02:40:30.718Z,1012.09
2023-02-27T02:50:30.884Z,1012.09
2023-02-27T03:00:30.916Z,1012.09
2023-02-27T03:10:31.248Z,1012.10
2023-02-27T03:20:31.276Z,1012.14
2023-02-27T03:30:31.646Z,1012.18
2023-02-27T03:40:33.861Z,1012.19
2023-02-27T03:50:32.090Z,1012.30
2023-02-27T04:00:32.239Z,1012.37
2023-02-27T04:10:32.388Z,1012.37
2023-02-27T04:20:32.421Z,1012.51
2023-02-27T04:30:32.740Z,1012.52
2023-02-27T04:40:32.777Z,1012.55
2023-02-27T04:50:33.101Z,1012.57
2023-02-27T05:00:33.138Z,1012.60
2023-02-27T05:10:33.509Z,1012.61
2023-02-27T05:20:33.560Z,1012.62
2023-02-27T05:30:36.906Z,1012.63
2023-02-27T05:40:33.942Z,1012.68
2023-02-27T05:50:34.211Z,1012.61
2023-02-27T06:00:34.260Z,1012.64
2023-02-27T06:10:34.575Z,1012.67
2023-02-27T06:20:34.602Z,1012.70
2023-02-27T06:30:34.865Z,1012.85
2023-02-27T06:40:35.006Z,1012.95
2023-02-27T06:50:35.256Z,1013.04
2023-02-27T07:00:35.308Z,1013.05
2023-02-27T07:10:35.681Z,1013.13
2023-02-27T07:20:35.738Z,1013.15
2023-02-27T07:30:36.055Z,1013.19
2023-02-27T07:40:36.085Z,1013.31
2023-02-27T07:50:36.452Z,1013.37
2023-02-27T08:00:36.483Z,1013.35
2023-02-27T08:10:36.800Z,1013.33
2023-02-27T08:20:36.837Z,1013.36
2023-02-27T08:30:39.224Z,1013.47
2023-02-27T08:40:37.276Z,1013.52
2023-02-27T08:50:37.728Z,1013.66
2023-02-27T09:00:37.601Z,1013.61
2023-02-27T09:10:37.917Z,1013.77
2023-02-27T09:20:37.944Z,1013.72
2023-02-27T09:30:38.287Z,1013.82
2023-02-27T09:40:38.315Z,1013.92
2023-02-27T09:50:38.683Z,1014.00
2023-02-27T10:00:38.727Z,1014.10
2023-02-27T10:10:39.042Z,1014.14
2023-02-27T10:20:39.074Z,1014.20
2023-02-27T10:30:39.490Z,1014.27
2023-02-27T10:40:39.537Z,1014.37
2023-02-27T10:50:39.873Z,1014.44
2023-02-27T11:00:39.909Z,1014.38
2023-02-27T11:10:40.243Z,1014.41
2023-02-27T11:20:40.269Z,1014.43
2023-02-27T11:30:40.613Z,1014.34
2023-02-27T11:40:40.644Z,1014.32
2023-02-27T11:50:40.980Z,1014.37
2023-02-27T12:00:41.018Z,1014.43
2023-02-27T12:10:41.359Z,1014.44
2023-02-27T12:20:41.398Z,1014.40
2023-02-27T12:30:41.720Z,1014.37
2023-02-27T12:40:41.755Z,1014.40
2023-02-27T12:50:42.092Z,1014.47
2023-02-27T13:00:42.224Z,1014.54
2023-02-27T13:10:42.388Z,1014.58
2023-02-27T13:20:42.410Z,1014.59
2023-02-27T13:30:42.750Z,1014.62
2023-02-27T13:40:42.784Z,1014.69
2023-02-27T13:50:43.096Z,1014.78
2023-02-27T14:00:43.135Z,1014.79
2023-02-27T14:10:43.472Z,1014.85
2023-02-27T14:20:43.506Z,1014.84
2023-02-27T14:30:44.809Z,1014.87
2023-02-27T14:40:43.908Z,1014.91
2023-02-27T14:50:44.214Z,1014.90
2023-02-27T15:00:44.248Z,1014.88
2023-02-27T15:10:44.594Z,1014.99
2023-02-27T15:20:44.639Z,1015.04
2023-02-27T15:30:44.955Z,1015.17
2023-02-27T15:40:45.115Z,1015.28
2023-02-27T15:50:45.219Z,1015.35
2023-02-27T16:00:45.362Z,1015.47
2023-02-27T16:10:45.482Z,1015.64
2023-02-27T16:20:45.675Z,1015.73
2023-02-27T16:30:47.737Z,1015.96
2023-02-27T16:40:46.017Z,1016.05
2023-02-27T16:50:47.160Z,1016.17
2023-02-27T17:00:46.634Z,1016.28
2023-02-27T17:10:46.599Z,1016.43
2023-02-27T17:20:46.881Z,1016.52
2023-02-27T17:30:47.025Z,1016.58
2023-02-27T17:40:47.133Z,1016.80
2023-02-27T17:50:47.392Z,1016.87
2023-02-27T18:00:47.822Z,1016.96
2023-02-27T18:10:47.816Z,1016.97
2023-02-27T18:20:48.093Z,1017.00
2023-02-27T18:30:48.052Z,1017.10
2023-02-27T18:40:48.356Z,1017.13
2023-02-27T18:50:49.660Z,1017.12
2023-02-27T19:00:54.458Z,1017.21
2023-02-27T19:10:48.620Z,1017.27
2023-02-27T19:20:49.215Z,1017.29
2023-02-27T19:30:49.235Z,1017.24
2023-02-27T19:40:49.619Z,1017.34
2023-02-27T19:50:49.626Z,1017.27
2023-02-27T20:00:49.958Z,1017.29
2023-02-27T20:10:50.003Z,1017.32
2023-02-27T20:20:50.267Z,1017.26
2023-02-27T20:30:50.479Z,1017.33
2023-02-27T20:40:50.719Z,1017.19
2023-02-27T20:50:50.809Z,1017.11
2023-02-27T21:00:51.148Z,1017.00
2023-02-27T21:10:50.909Z,1016.97
2023-02-27T21:20:53.293Z,1016.91
2023-02-27T21:30:51.270Z,1016.84
2023-02-27T21:40:51.409Z,1016.77
2023-02-27T21:50:51.438Z,1016.71
2023-02-27T22:00:51.769Z,1016.81
2023-02-27T22:10:51.805Z,1016.68
2023-02-27T22:20:52.132Z,1016.71
2023-02-27T22:30:52.226Z,1016.71
2023-02-27T22:40:52.299Z,1016.70
2023-02-27T22:50:52.536Z,1016.71
2023-02-27T23:00:52.878Z,1016.65
2023-02-27T23:10:52.911Z,1016.67
2023-02-27T23:20:53.267Z,1016.57
2023-02-27T23:30:53.283Z,1016.58
2023-02-27T23:40:53.610Z,1016.56
2023-02-27T23:50:53.638Z,1016.54
